createdAt,value
2018-07-20T00:00:32.737Z,0
2018-07-20T00:01:34.392Z,0
2018-07-20T00:02:36.113Z,0
2018-07-20T00:03:37.776Z,0
2018-07-20T00:04:39.456Z,0
2018-07-20T00:05:41.203Z,0
2018-07-20T00:06:42.902Z,0
2018-07-20T00:07:44.549Z,0
2018-07-20T00:08:46.207Z,0
2018-07-20T00:09:47.860Z,0
2018-07-20T00:10:49.519Z,0
2018-07-20T00:11:51.230Z,0
2018-07-20T00:12:52.904Z,0
2018-07-20T00:13:54.594Z,0
2018-07-20T00:14:56.327Z,0
2018-07-20T00:15:57.980Z,0
2018-07-20T00:16:59.651Z,0
2018-07-20T00:18:01.398Z,0
2018-07-20T00:19:03.085Z,0
2018-07-20T00:20:04.790Z,0
2018-07-20T00:21:06.438Z,0
2018-07-20T00:22:08.160Z,0
2018-07-20T00:23:09.872Z,0
2018-07-20T00:24:11.626Z,0
2018-07-20T00:25:13.301Z,0
2018-07-20T00:26:14.976Z,0
2018-07-20T00:27:16.738Z,0
2018-07-20T00:28:18.431Z,0
2018-07-20T00:29:20.164Z,0
2018-07-20T00:30:21.945Z,0
2018-07-20T00:31:23.644Z,0
2018-07-20T00:32:25.309Z,0
2018-07-20T00:33:27.027Z,0
2018-07-20T00:34:28.659Z,0
2018-07-20T00:35:30.232Z,0
2018-07-20T00:36:32.004Z,0
2018-07-20T00:37:33.742Z,0
2018-07-20T00:38:35.474Z,0
2018-07-20T00:39:37.255Z,0
2018-07-20T00:40:38.953Z,0
2018-07-20T00:41:40.614Z,0
2018-07-20T00:42:42.347Z,0
2018-07-20T00:43:44.024Z,0
2018-07-20T00:44:45.734Z,0
2018-07-20T00:45:47.393Z,0
2018-07-20T00:46:49.127Z,0
2018-07-20T00:47:50.849Z,0
2018-07-20T00:48:52.638Z,0
2018-07-20T00:49:54.939Z,0
2018-07-20T00:50:56.649Z,0
2018-07-20T00:51:58.302Z,0
2018-07-20T00:53:00.023Z,0
2018-07-20T00:54:01.713Z,0
2018-07-20T00:55:03.334Z,0
2018-07-20T00:56:05.053Z,0
2018-07-20T00:57:06.724Z,0
2018-07-20T00:58:08.422Z,0
2018-07-20T00:59:10.157Z,0
2018-07-20T01:00:11.858Z,0
2018-07-20T01:01:13.538Z,0
2018-07-20T01:02:15.192Z,0
2018-07-20T01:03:16.834Z,0
2018-07-20T01:04:18.542Z,0
2018-07-20T01:05:20.165Z,0
2018-07-20T01:06:21.864Z,0
2018-07-20T01:07:23.562Z,0
2018-07-20T01:08:25.298Z,0
2018-07-20T01:09:26.917Z,0
2018-07-20T01:10:28.532Z,0
2018-07-20T01:11:30.334Z,0
2018-07-20T01:12:32.044Z,0
2018-07-20T01:13:33.724Z,0
2018-07-20T01:14:35.509Z,0
2018-07-20T01:15:37.238Z,0
2018-07-20T01:16:38.856Z,0
2018-07-20T01:17:40.587Z,0
2018-07-20T01:18:42.340Z,0
2018-07-20T01:19:44.085Z,0
2018-07-20T01:20:45.828Z,0
2018-07-20T01:21:47.499Z,0
2018-07-20T01:22:50.097Z,0
2018-07-20T01:23:51.795Z,0
2018-07-20T01:24:53.489Z,0
2018-07-20T01:25:55.127Z,0
2018-07-20T01:26:56.767Z,0
2018-07-20T01:27:58.490Z,0
2018-07-20T01:29:00.187Z,0
2018-07-20T01:30:01.874Z,0
2018-07-20T01:31:03.629Z,0
2018-07-20T01:32:05.326Z,0
2018-07-20T01:33:07.066Z,0
2018-07-20T01:34:08.774Z,0
2018-07-20T01:35:10.406Z,0
2018-07-20T01:36:12.116Z,0
2018-07-20T01:37:13.816Z,0
2018-07-20T01:38:15.515Z,0
2018-07-20T01:39:17.196Z,0
2018-07-20T01:40:18.929Z,0
2018-07-20T01:41:20.682Z,0
2018-07-20T01:42:22.379Z,0
2018-07-20T01:43:24.049Z,0
2018-07-20T01:44:25.679Z,0
2018-07-20T01:45:27.350Z,0
2018-07-20T01:46:29.028Z,0
2018-07-20T01:47:30.725Z,0
2018-07-20T01:48:32.366Z,0
2018-07-20T01:49:34.120Z,0
2018-07-20T01:50:35.865Z,0
2018-07-20T01:51:37.574Z,0
2018-07-20T01:52:39.296Z,0
2018-07-20T01:53:40.937Z,0
2018-07-20T01:54:42.645Z,0
2018-07-20T01:55:44.412Z,0
2018-07-20T01:56:45.986Z,0
2018-07-20T01:57:47.612Z,0
2018-07-20T01:58:49.250Z,0
2018-07-20T01:59:51.006Z,0
2018-07-20T02:00:52.660Z,0
2018-07-20T02:01:54.319Z,0
2018-07-20T02:02:56.089Z,0
2018-07-20T02:03:57.696Z,0
2018-07-20T02:04:59.426Z,0
2018-07-20T02:06:01.144Z,0
2018-07-20T02:07:02.873Z,0
2018-07-20T02:08:04.589Z,0
2018-07-20T02:09:06.231Z,0
2018-07-20T02:10:07.931Z,0
2018-07-20T02:11:09.681Z,0
2018-07-20T02:12:11.361Z,0
2018-07-20T02:13:13.079Z,0
2018-07-20T02:14:14.787Z,0
2018-07-20T02:15:16.482Z,0
2018-07-20T02:16:18.188Z,0
2018-07-20T02:17:19.824Z,0
2018-07-20T02:18:21.511Z,0
2018-07-20T02:19:23.221Z,0
2018-07-20T02:20:24.852Z,0
2018-07-20T02:21:26.577Z,0
2018-07-20T02:22:28.246Z,0
2018-07-20T02:23:29.987Z,0
2018-07-20T02:24:31.704Z,0
2018-07-20T02:25:33.491Z,0
2018-07-20T02:26:35.187Z,0
2018-07-20T02:27:36.911Z,0
2018-07-20T02:28:38.656Z,0
2018-07-20T02:29:40.394Z,0
2018-07-20T02:30:42.033Z,0
2018-07-20T02:31:43.756Z,0
2018-07-20T02:32:45.560Z,0
2018-07-20T02:33:47.188Z,0
2018-07-20T02:34:48.912Z,0
2018-07-20T02:35:50.567Z,0
2018-07-20T02:36:52.202Z,0
2018-07-20T02:37:53.913Z,0
2018-07-20T02:38:55.654Z,0
2018-07-20T02:39:57.346Z,0
2018-07-20T02:40:59.020Z,0
2018-07-20T02:42:00.795Z,0
2018-07-20T02:43:02.546Z,0
2018-07-20T02:44:04.140Z,0
2018-07-20T02:45:05.818Z,0
2018-07-20T02:46:07.536Z,0
2018-07-20T02:47:09.220Z,0
2018-07-20T02:48:10.908Z,0
2018-07-20T02:49:12.578Z,0
2018-07-20T02:50:14.308Z,0
2018-07-20T02:51:16.035Z,0
2018-07-20T02:52:17.693Z,0
2018-07-20T02:53:19.361Z,0
2018-07-20T02:54:21.090Z,0
2018-07-20T02:55:22.714Z,0
2018-07-20T02:56:24.418Z,0
2018-07-20T02:57:26.125Z,0
2018-07-20T02:58:27.872Z,0
2018-07-20T02:59:29.595Z,0
2018-07-20T03:00:31.363Z,0
2018-07-20T03:01:33.041Z,0
2018-07-20T03:02:34.830Z,0
2018-07-20T03:03:36.502Z,0
2018-07-20T03:04:38.242Z,0
2018-07-20T03:05:39.985Z,0
2018-07-20T03:06:41.655Z,0
2018-07-20T03:07:43.346Z,0
2018-07-20T03:08:44.966Z,0
2018-07-20T03:09:46.605Z,0
2018-07-20T03:10:48.287Z,0
2018-07-20T03:11:49.962Z,0
2018-07-20T03:12:51.662Z,0
2018-07-20T03:13:53.364Z,0
2018-07-20T03:14:55.121Z,0
2018-07-20T03:15:56.713Z,0
2018-07-20T03:16:58.357Z,0
2018-07-20T03:17:59.978Z,0
2018-07-20T03:19:01.628Z,0
2018-07-20T03:20:03.338Z,0
2018-07-20T03:21:05.007Z,0
2018-07-20T03:22:06.697Z,0
2018-07-20T03:23:08.327Z,0
2018-07-20T03:24:09.980Z,0
2018-07-20T03:25:11.649Z,0
2018-07-20T03:26:13.373Z,0
2018-07-20T03:27:15.116Z,5
2018-07-20T03:28:16.904Z,5
2018-07-20T03:29:18.599Z,5
2018-07-20T03:30:20.314Z,5
2018-07-20T03:31:22.015Z,5
2018-07-20T03:32:23.742Z,5
2018-07-20T03:33:25.431Z,5
2018-07-20T03:34:27.124Z,5
2018-07-20T03:35:28.842Z,5
2018-07-20T03:36:30.567Z,10
2018-07-20T03:37:32.282Z,10
2018-07-20T03:38:33.999Z,10
2018-07-20T03:39:35.746Z,10
2018-07-20T03:40:37.491Z,10
2018-07-20T03:41:39.206Z,10
2018-07-20T03:42:40.831Z,10
2018-07-20T03:43:42.523Z,15
2018-07-20T03:44:44.175Z,15
2018-07-20T03:45:45.953Z,15
2018-07-20T03:46:47.670Z,15
2018-07-20T03:47:49.327Z,15
2018-07-20T03:48:51.025Z,20
2018-07-20T03:49:52.679Z,20
2018-07-20T03:50:54.332Z,20
2018-07-20T03:51:56.058Z,20
2018-07-20T03:52:57.863Z,20
2018-07-20T03:53:59.625Z,25
2018-07-20T03:55:01.311Z,25
2018-07-20T03:56:03.048Z,25
2018-07-20T03:57:04.768Z,25
2018-07-20T03:58:06.480Z,25
2018-07-20T03:59:08.157Z,30
2018-07-20T04:00:09.862Z,30
2018-07-20T04:01:11.525Z,30
2018-07-20T04:02:13.528Z,30
2018-07-20T04:03:15.241Z,35
2018-07-20T04:04:16.873Z,35
2018-07-20T04:05:18.570Z,35
2018-07-20T04:06:20.336Z,35
2018-07-20T04:07:22.021Z,40
2018-07-20T04:08:23.880Z,40
2018-07-20T04:09:25.814Z,40
2018-07-20T04:10:27.649Z,40
2018-07-20T04:11:29.314Z,40
2018-07-20T04:12:31.231Z,45
2018-07-20T04:13:32.880Z,45
2018-07-20T04:14:34.551Z,45
2018-07-20T04:15:36.233Z,45
2018-07-20T04:16:37.908Z,50
2018-07-20T04:17:39.648Z,50
2018-07-20T04:18:41.462Z,55
2018-07-20T04:19:43.184Z,55
2018-07-20T04:20:45.071Z,55
2018-07-20T04:21:46.748Z,60
2018-07-20T04:22:48.540Z,60
2018-07-20T04:23:50.246Z,65
2018-07-20T04:24:51.990Z,65
2018-07-20T04:25:53.777Z,65
2018-07-20T04:26:56.131Z,70
2018-07-20T04:27:57.885Z,70
2018-07-20T04:28:59.514Z,75
2018-07-20T04:30:01.229Z,75
2018-07-20T04:31:02.975Z,75
2018-07-20T04:32:04.673Z,80
2018-07-20T04:33:06.377Z,80
2018-07-20T04:34:08.139Z,85
2018-07-20T04:35:09.832Z,85
2018-07-20T04:36:11.670Z,90
2018-07-20T04:37:13.396Z,90
2018-07-20T04:38:15.122Z,90
2018-07-20T04:39:16.935Z,90
2018-07-20T04:40:18.734Z,95
2018-07-20T04:41:20.533Z,100
2018-07-20T04:42:22.159Z,100
2018-07-20T04:43:23.847Z,100
2018-07-20T04:44:26.166Z,105
2018-07-20T04:45:27.922Z,105
2018-07-20T04:46:29.689Z,110
2018-07-20T04:47:31.401Z,115
2018-07-20T04:48:33.076Z,115
2018-07-20T04:49:34.763Z,120
2018-07-20T04:50:36.527Z,130
2018-07-20T04:51:38.277Z,130
2018-07-20T04:52:40.036Z,140
2018-07-20T04:53:41.751Z,140
2018-07-20T04:54:43.483Z,140
2018-07-20T04:55:45.285Z,145
2018-07-20T04:56:47.131Z,150
2018-07-20T04:57:48.808Z,155
2018-07-20T04:58:50.582Z,155
2018-07-20T04:59:52.298Z,160
2018-07-20T05:00:54.087Z,165
2018-07-20T05:01:55.799Z,170
2018-07-20T05:02:57.624Z,175
2018-07-20T05:03:59.301Z,175
2018-07-20T05:05:00.997Z,175
2018-07-20T05:06:02.746Z,180
2018-07-20T05:07:04.468Z,180
2018-07-20T05:08:06.248Z,185
2018-07-20T05:09:07.989Z,185
2018-07-20T05:10:09.736Z,190
2018-07-20T05:11:11.428Z,190
2018-07-20T05:12:13.159Z,195
2018-07-20T05:13:14.901Z,200
2018-07-20T05:14:16.631Z,205
2018-07-20T05:15:18.404Z,210
2018-07-20T05:16:20.079Z,220
2018-07-20T05:17:21.876Z,220
2018-07-20T05:18:23.605Z,225
2018-07-20T05:19:25.430Z,225
2018-07-20T05:20:27.169Z,230
2018-07-20T05:21:28.932Z,230
2018-07-20T05:22:30.756Z,230
2018-07-20T05:23:32.536Z,230
2018-07-20T05:24:34.281Z,230
2018-07-20T05:25:36.068Z,235
2018-07-20T05:26:37.888Z,240
2018-07-20T05:27:39.657Z,250
2018-07-20T05:28:41.422Z,250
2018-07-20T05:29:43.097Z,260
2018-07-20T05:30:44.717Z,275
2018-07-20T05:31:46.516Z,290
2018-07-20T05:32:48.328Z,305
2018-07-20T05:33:50.095Z,315
2018-07-20T05:34:51.893Z,325
2018-07-20T05:35:53.698Z,335
2018-07-20T05:36:55.443Z,330
2018-07-20T05:37:57.094Z,325
2018-07-20T05:38:58.911Z,315
2018-07-20T05:40:00.594Z,300
2018-07-20T05:41:02.311Z,270
2018-07-20T05:42:04.104Z,255
2018-07-20T05:43:05.903Z,250
2018-07-20T05:44:07.823Z,245
2018-07-20T05:45:09.378Z,235
2018-07-20T05:46:11.155Z,230
2018-07-20T05:47:12.858Z,225
2018-07-20T05:48:14.544Z,210
2018-07-20T05:49:16.205Z,215
2018-07-20T05:50:17.945Z,220
2018-07-20T05:51:19.646Z,225
2018-07-20T05:52:21.435Z,230
2018-07-20T05:53:23.314Z,235
2018-07-20T05:54:24.954Z,245
2018-07-20T05:55:26.673Z,250
2018-07-20T05:56:28.447Z,285
2018-07-20T05:57:30.104Z,290
2018-07-20T05:58:31.843Z,275
2018-07-20T05:59:33.596Z,280
2018-07-20T06:00:35.403Z,285
2018-07-20T06:01:37.194Z,290
2018-07-20T06:02:38.922Z,290
2018-07-20T06:03:40.711Z,275
2018-07-20T06:04:42.359Z,290
2018-07-20T06:05:44.152Z,295
2018-07-20T06:06:45.924Z,285
2018-07-20T06:07:47.753Z,290
2018-07-20T06:08:49.530Z,310
2018-07-20T06:09:51.266Z,310
2018-07-20T06:10:52.908Z,315
2018-07-20T06:11:54.578Z,310
2018-07-20T06:12:56.374Z,325
2018-07-20T06:13:58.169Z,330
2018-07-20T06:14:59.897Z,330
2018-07-20T06:16:01.547Z,330
2018-07-20T06:17:03.327Z,340
2018-07-20T06:18:05.126Z,360
2018-07-20T06:19:06.876Z,370
2018-07-20T06:20:08.648Z,380
2018-07-20T06:21:10.506Z,385
2018-07-20T06:22:12.244Z,370
2018-07-20T06:23:14.063Z,370
2018-07-20T06:24:15.834Z,375
2018-07-20T06:25:17.454Z,380
2018-07-20T06:26:19.263Z,390
2018-07-20T06:27:20.960Z,395
2018-07-20T06:28:22.713Z,400
2018-07-20T06:29:24.396Z,410
2018-07-20T06:30:26.120Z,415
2018-07-20T06:31:27.904Z,410
2018-07-20T06:32:29.702Z,415
2018-07-20T06:33:31.508Z,405
2018-07-20T06:34:33.331Z,390
2018-07-20T06:35:35.189Z,390
2018-07-20T06:36:37.092Z,405
2018-07-20T06:37:38.976Z,395
2018-07-20T06:38:40.720Z,400
2018-07-20T06:39:42.400Z,420
2018-07-20T06:40:44.099Z,415
2018-07-20T06:41:45.862Z,420
2018-07-20T06:42:47.679Z,425
2018-07-20T06:43:49.621Z,415
2018-07-20T06:44:51.275Z,400
2018-07-20T06:45:52.956Z,380
2018-07-20T06:46:54.836Z,385
2018-07-20T06:47:56.644Z,390
2018-07-20T06:48:58.427Z,395
2018-07-20T06:50:00.214Z,405
2018-07-20T06:51:02.032Z,395
2018-07-20T06:52:03.872Z,420
2018-07-20T06:53:05.683Z,405
2018-07-20T06:54:07.542Z,450
2018-07-20T06:55:09.365Z,445
2018-07-20T06:56:11.119Z,475
2018-07-20T06:57:12.820Z,465
2018-07-20T06:58:14.599Z,470
2018-07-20T06:59:16.284Z,475
2018-07-20T07:00:18.135Z,475
2018-07-20T07:01:19.991Z,480
2018-07-20T07:02:21.751Z,485
2018-07-20T07:03:23.473Z,480
2018-07-20T07:04:25.370Z,425
2018-07-20T07:05:27.128Z,445
2018-07-20T07:06:28.814Z,495
2018-07-20T07:07:30.604Z,505
2018-07-20T07:08:32.430Z,490
2018-07-20T07:09:34.243Z,485
2018-07-20T07:10:35.985Z,515
2018-07-20T07:11:37.931Z,525
2018-07-20T07:12:39.768Z,525
2018-07-20T07:13:41.486Z,520
2018-07-20T07:14:43.297Z,515
2018-07-20T07:15:45.051Z,515
2018-07-20T07:16:46.806Z,525
2018-07-20T07:17:48.480Z,520
2018-07-20T07:18:50.349Z,525
2018-07-20T07:19:52.200Z,535
2018-07-20T07:20:54.006Z,555
2018-07-20T07:21:55.761Z,565
2018-07-20T07:22:57.555Z,575
2018-07-20T07:23:59.249Z,585
2018-07-20T07:25:01.046Z,590
2018-07-20T07:26:02.914Z,595
2018-07-20T07:27:04.574Z,605
2018-07-20T07:28:06.287Z,605
2018-07-20T07:29:08.131Z,600
2018-07-20T07:30:09.848Z,605
2018-07-20T07:31:11.704Z,595
2018-07-20T07:32:13.628Z,590
2018-07-20T07:33:15.428Z,595
2018-07-20T07:34:17.146Z,595
2018-07-20T07:35:18.977Z,590
2018-07-20T07:36:20.783Z,590
2018-07-20T07:37:22.443Z,600
2018-07-20T07:38:24.231Z,595
2018-07-20T07:39:26.135Z,605
2018-07-20T07:40:28.014Z,605
2018-07-20T07:41:29.793Z,620
2018-07-20T07:42:31.556Z,615
2018-07-20T07:43:33.349Z,620
2018-07-20T07:44:35.102Z,625
2018-07-20T07:45:36.942Z,630
2018-07-20T07:46:38.728Z,630
2018-07-20T07:47:40.470Z,640
2018-07-20T07:48:42.315Z,655
2018-07-20T07:49:44.266Z,650
2018-07-20T07:50:45.952Z,620
2018-07-20T07:51:47.783Z,620
2018-07-20T07:52:49.594Z,595
2018-07-20T07:53:51.295Z,555
2018-07-20T07:54:53.373Z,635
2018-07-20T07:55:54.978Z,640
2018-07-20T07:56:56.767Z,650
2018-07-20T07:57:58.614Z,655
2018-07-20T07:59:00.516Z,655
2018-07-20T08:00:02.315Z,655
2018-07-20T08:01:04.089Z,660
2018-07-20T08:02:05.830Z,670
2018-07-20T08:03:07.567Z,670
2018-07-20T08:04:09.387Z,670
2018-07-20T08:05:11.345Z,670
2018-07-20T08:06:13.178Z,650
2018-07-20T08:07:15.088Z,655
2018-07-20T08:08:16.976Z,665
2018-07-20T08:09:18.705Z,660
2018-07-20T08:10:20.705Z,640
2018-07-20T08:11:22.493Z,655
2018-07-20T08:12:24.435Z,655
2018-07-20T08:13:26.204Z,660
2018-07-20T08:14:27.925Z,660
2018-07-20T08:15:29.672Z,665
2018-07-20T08:16:31.474Z,675
2018-07-20T08:17:33.164Z,695
2018-07-20T08:18:34.877Z,705
2018-07-20T08:19:36.708Z,715
2018-07-20T08:20:38.524Z,710
2018-07-20T08:21:40.360Z,720
2018-07-20T08:22:42.057Z,725
2018-07-20T08:23:43.859Z,730
2018-07-20T08:24:45.595Z,725
2018-07-20T08:25:47.697Z,735
2018-07-20T08:26:49.508Z,755
2018-07-20T08:27:51.233Z,760
2018-07-20T08:28:53.000Z,775
2018-07-20T08:29:54.820Z,770
2018-07-20T08:30:56.782Z,770
2018-07-20T08:31:58.827Z,760
2018-07-20T08:33:00.637Z,760
2018-07-20T08:34:02.705Z,765
2018-07-20T08:35:04.423Z,765
2018-07-20T08:36:06.242Z,765
2018-07-20T08:37:07.952Z,770
2018-07-20T08:38:09.744Z,770
2018-07-20T08:39:11.572Z,770
2018-07-20T08:40:13.378Z,770
2018-07-20T08:41:15.134Z,760
2018-07-20T08:42:17.120Z,725
2018-07-20T08:43:18.872Z,720
2018-07-20T08:44:20.859Z,710
2018-07-20T08:45:22.662Z,700
2018-07-20T08:46:24.526Z,700
2018-07-20T08:47:26.314Z,685
2018-07-20T08:48:28.336Z,685
2018-07-20T08:49:30.183Z,680
2018-07-20T08:50:31.904Z,685
2018-07-20T08:51:33.764Z,715
2018-07-20T08:52:35.701Z,715
2018-07-20T08:53:37.504Z,705
2018-07-20T08:54:39.363Z,720
2018-07-20T08:55:41.213Z,715
2018-07-20T08:56:43.038Z,720
2018-07-20T08:57:45.142Z,735
2018-07-20T08:58:46.930Z,750
2018-07-20T08:59:48.712Z,750
2018-07-20T09:00:50.448Z,750
2018-07-20T09:01:52.223Z,750
2018-07-20T09:02:54.038Z,765
2018-07-20T09:03:56.593Z,780
2018-07-20T09:04:58.360Z,780
2018-07-20T09:06:00.252Z,790
2018-07-20T09:07:02.062Z,800
2018-07-20T09:08:03.916Z,810
2018-07-20T09:09:05.779Z,825
2018-07-20T09:10:07.585Z,830
2018-07-20T09:11:09.441Z,835
2018-07-20T09:12:11.206Z,840
2018-07-20T09:13:13.016Z,850
2018-07-20T09:14:14.815Z,860
2018-07-20T09:15:16.942Z,870
2018-07-20T09:16:18.822Z,870
2018-07-20T09:17:20.860Z,880
2018-07-20T09:18:22.708Z,895
2018-07-20T09:19:24.572Z,900
2018-07-20T09:20:26.642Z,905
2018-07-20T09:21:28.693Z,925
2018-07-20T09:22:30.479Z,940
2018-07-20T09:23:32.224Z,960
2018-07-20T09:24:33.939Z,960
2018-07-20T09:25:35.872Z,985
2018-07-20T09:26:37.745Z,1040
2018-07-20T09:27:39.606Z,1065
2018-07-20T09:28:41.372Z,1105
2018-07-20T09:29:43.139Z,1155
2018-07-20T09:30:44.956Z,1170
2018-07-20T09:31:46.821Z,1150
2018-07-20T09:32:48.615Z,1140
2018-07-20T09:33:50.749Z,985
2018-07-20T09:34:52.567Z,1060
2018-07-20T09:35:54.435Z,1140
2018-07-20T09:36:56.248Z,1165
2018-07-20T09:37:58.030Z,1210
2018-07-20T09:39:00.044Z,1170
2018-07-20T09:40:01.932Z,1285
2018-07-20T09:41:03.881Z,1230
2018-07-20T09:42:05.652Z,1305
2018-07-20T09:43:07.468Z,1470
2018-07-20T09:44:09.296Z,1560
2018-07-20T09:45:11.052Z,1650
2018-07-20T09:46:12.832Z,1655
2018-07-20T09:47:14.827Z,1700
2018-07-20T09:48:16.607Z,1725
2018-07-20T09:49:18.374Z,1315
2018-07-20T09:50:20.104Z,1645
2018-07-20T09:51:22.053Z,1665
2018-07-20T09:52:24.059Z,1715
2018-07-20T09:53:26.574Z,1795
2018-07-20T09:54:28.384Z,1780
2018-07-20T09:55:30.184Z,1810
2018-07-20T09:56:31.984Z,1515
2018-07-20T09:57:33.811Z,1430
2018-07-20T09:58:35.616Z,1695
2018-07-20T09:59:37.418Z,1815
2018-07-20T10:00:39.179Z,1670
2018-07-20T10:01:40.910Z,1795
2018-07-20T10:02:42.766Z,1650
2018-07-20T10:03:44.629Z,1745
2018-07-20T10:04:46.886Z,1720
2018-07-20T10:05:48.751Z,1725
2018-07-20T10:06:50.627Z,1730
2018-07-20T10:07:52.514Z,1725
2018-07-20T10:08:54.628Z,1780
2018-07-20T10:09:56.469Z,1790
2018-07-20T10:10:58.315Z,1860
2018-07-20T10:12:01.242Z,1960
2018-07-20T10:13:02.921Z,3920
2018-07-20T10:14:04.662Z,5080
2018-07-20T10:15:06.525Z,4390
2018-07-20T10:16:08.375Z,4090
2018-07-20T10:17:10.589Z,4015
2018-07-20T10:18:12.833Z,3920
2018-07-20T10:19:14.655Z,3960
2018-07-20T10:20:16.568Z,4020
2018-07-20T10:21:18.746Z,3995
2018-07-20T10:22:20.422Z,3890
2018-07-20T10:23:22.496Z,3820
2018-07-20T10:24:24.439Z,3640
2018-07-20T10:25:26.465Z,3875
2018-07-20T10:26:28.370Z,3790
2018-07-20T10:27:30.172Z,3810
2018-07-20T10:28:32.211Z,3820
2018-07-20T10:29:34.290Z,3840
2018-07-20T10:30:36.168Z,3935
2018-07-20T10:31:37.924Z,3855
2018-07-20T10:32:39.824Z,3820
2018-07-20T10:33:41.809Z,3820
2018-07-20T10:34:43.712Z,3865
2018-07-20T10:35:45.617Z,3935
2018-07-20T10:36:47.408Z,3840
2018-07-20T10:37:49.257Z,3775
2018-07-20T10:38:51.035Z,3890
2018-07-20T10:39:52.876Z,3940
2018-07-20T10:40:54.682Z,3610
2018-07-20T10:41:56.939Z,3725
2018-07-20T10:42:58.716Z,3295
2018-07-20T10:44:00.464Z,3255
2018-07-20T10:45:01.939Z,2980
2018-07-20T10:46:03.638Z,2360
2018-07-20T10:47:05.450Z,2430
2018-07-20T10:48:07.286Z,2485
2018-07-20T10:49:09.028Z,2295
2018-07-20T10:50:10.899Z,2025
2018-07-20T10:51:12.648Z,2720
2018-07-20T10:52:14.574Z,3950
2018-07-20T10:53:16.310Z,4080
2018-07-20T10:54:18.010Z,4045
2018-07-20T10:55:19.737Z,3980
2018-07-20T10:56:21.551Z,3940
2018-07-20T10:57:23.862Z,3945
2018-07-20T10:58:25.873Z,3830
2018-07-20T10:59:27.665Z,3120
2018-07-20T11:00:29.386Z,1330
2018-07-20T11:01:31.525Z,1300
2018-07-20T11:02:33.542Z,1070
2018-07-20T11:03:35.442Z,1230
2018-07-20T11:04:37.148Z,2155
2018-07-20T11:05:39.044Z,4015
2018-07-20T11:06:40.727Z,4295
2018-07-20T11:07:42.505Z,4240
2018-07-20T11:08:44.319Z,4380
2018-07-20T11:09:46.225Z,4355
2018-07-20T11:10:47.971Z,4325
2018-07-20T11:11:50.005Z,4265
2018-07-20T11:12:51.728Z,4215
2018-07-20T11:13:53.520Z,4470
2018-07-20T11:14:55.295Z,4525
2018-07-20T11:15:57.248Z,4280
2018-07-20T11:16:59.298Z,4330
2018-07-20T11:18:01.119Z,4365
2018-07-20T11:19:02.885Z,4425
2018-07-20T11:20:04.662Z,4365
2018-07-20T11:21:06.440Z,4290
2018-07-20T11:22:08.218Z,4260
2018-07-20T11:23:09.962Z,4280
2018-07-20T11:24:11.697Z,4015
2018-07-20T11:25:14.357Z,4080
2018-07-20T11:26:16.353Z,4160
2018-07-20T11:27:18.097Z,4230
2018-07-20T11:28:20.095Z,4325
2018-07-20T11:29:21.727Z,4390
2018-07-20T11:30:23.577Z,4470
2018-07-20T11:31:25.409Z,4320
2018-07-20T11:32:27.190Z,4430
2018-07-20T11:33:29.023Z,4550
2018-07-20T11:34:30.775Z,4420
2018-07-20T11:35:32.806Z,4485
2018-07-20T11:36:34.552Z,4445
2018-07-20T11:37:36.398Z,4470
2018-07-20T11:38:38.152Z,4380
2018-07-20T11:39:39.862Z,4240
2018-07-20T11:40:42.722Z,4180
2018-07-20T11:41:44.705Z,3760
2018-07-20T11:42:46.520Z,4110
2018-07-20T11:43:48.218Z,4155
2018-07-20T11:44:49.909Z,4225
2018-07-20T11:45:51.657Z,4420
2018-07-20T11:46:53.346Z,4525
2018-07-20T11:47:55.121Z,4555
2018-07-20T11:48:57.026Z,4360
2018-07-20T11:49:58.791Z,4280
2018-07-20T11:51:00.579Z,4055
2018-07-20T11:52:02.394Z,4160
2018-07-20T11:53:04.185Z,1745
2018-07-20T11:54:05.957Z,3925
2018-07-20T11:55:07.657Z,3895
2018-07-20T11:56:09.541Z,4125
2018-07-20T11:57:11.446Z,2475
2018-07-20T11:58:13.438Z,1090
2018-07-20T11:59:15.201Z,3315
2018-07-20T12:00:17.220Z,3960
2018-07-20T12:01:18.920Z,4265
2018-07-20T12:02:20.630Z,4185
2018-07-20T12:03:22.700Z,4240
2018-07-20T12:04:24.444Z,4165
2018-07-20T12:05:26.180Z,3985
2018-07-20T12:06:28.045Z,3955
2018-07-20T12:07:29.895Z,4045
2018-07-20T12:08:31.679Z,4110
2018-07-20T12:09:33.531Z,4020
2018-07-20T12:10:35.269Z,4135
2018-07-20T12:11:37.143Z,3610
2018-07-20T12:12:38.896Z,3775
2018-07-20T12:13:40.942Z,4020
2018-07-20T12:14:42.757Z,4030
2018-07-20T12:15:44.478Z,2465
2018-07-20T12:16:46.228Z,3475
2018-07-20T12:17:47.971Z,3610
2018-07-20T12:18:49.740Z,3985
2018-07-20T12:19:51.476Z,4005
2018-07-20T12:20:53.138Z,3955
2018-07-20T12:21:54.966Z,3920
2018-07-20T12:22:56.707Z,3895
2018-07-20T12:23:58.472Z,4015
2018-07-20T12:25:00.310Z,4130
2018-07-20T12:26:03.411Z,4075
2018-07-20T12:27:05.238Z,4150
2018-07-20T12:28:07.043Z,4050
2018-07-20T12:29:08.765Z,4055
2018-07-20T12:30:10.529Z,4125
2018-07-20T12:31:12.237Z,4045
2018-07-20T12:32:13.934Z,3830
2018-07-20T12:33:15.716Z,3790
2018-07-20T12:34:17.436Z,3935
2018-07-20T12:35:19.159Z,3990
2018-07-20T12:36:20.836Z,3915
2018-07-20T12:37:22.637Z,3890
2018-07-20T12:38:24.334Z,4240
2018-07-20T12:39:26.087Z,4245
2018-07-20T12:40:27.785Z,4170
2018-07-20T12:41:29.439Z,4200
2018-07-20T12:42:31.214Z,4085
2018-07-20T12:43:32.823Z,3975
2018-07-20T12:44:34.997Z,3865
2018-07-20T12:45:37.300Z,4005
2018-07-20T12:46:39.109Z,3970
2018-07-20T12:47:40.656Z,3980
2018-07-20T12:48:42.367Z,4045
2018-07-20T12:49:44.660Z,4025
2018-07-20T12:50:46.615Z,3435
2018-07-20T12:51:48.398Z,4010
2018-07-20T12:52:50.539Z,3940
2018-07-20T12:53:52.241Z,3725
2018-07-20T12:54:53.861Z,4070
2018-07-20T12:55:55.619Z,1020
2018-07-20T12:56:57.348Z,895
2018-07-20T12:57:59.398Z,850
2018-07-20T12:59:01.075Z,850
2018-07-20T13:00:02.842Z,860
2018-07-20T13:01:04.731Z,810
2018-07-20T13:02:06.308Z,790
2018-07-20T13:03:08.135Z,855
2018-07-20T13:04:09.833Z,845
2018-07-20T13:05:11.634Z,3620
2018-07-20T13:06:13.424Z,3695
2018-07-20T13:07:15.167Z,3725
2018-07-20T13:08:17.063Z,3605
2018-07-20T13:09:18.818Z,3405
2018-07-20T13:10:20.531Z,1120
2018-07-20T13:11:22.306Z,1080
2018-07-20T13:12:24.079Z,970
2018-07-20T13:13:25.766Z,880
2018-07-20T13:14:27.484Z,830
2018-07-20T13:15:29.251Z,790
2018-07-20T13:16:30.921Z,740
2018-07-20T13:17:32.669Z,695
2018-07-20T13:18:34.369Z,665
2018-07-20T13:19:36.100Z,650
2018-07-20T13:20:37.821Z,645
2018-07-20T13:21:39.563Z,660
2018-07-20T13:22:41.233Z,725
2018-07-20T13:23:42.957Z,845
2018-07-20T13:24:44.676Z,830
2018-07-20T13:25:46.344Z,1040
2018-07-20T13:26:48.090Z,3315
2018-07-20T13:27:49.802Z,3415
2018-07-20T13:28:51.485Z,3455
2018-07-20T13:29:53.301Z,3670
2018-07-20T13:30:55.109Z,2705
2018-07-20T13:31:56.888Z,1665
2018-07-20T13:32:58.552Z,3735
2018-07-20T13:34:00.278Z,3400
2018-07-20T13:35:02.067Z,3310
2018-07-20T13:36:03.698Z,3560
2018-07-20T13:37:05.381Z,1845
2018-07-20T13:38:07.377Z,1010
2018-07-20T13:39:09.081Z,3120
2018-07-20T13:40:11.018Z,2195
2018-07-20T13:41:12.701Z,960
2018-07-20T13:42:14.425Z,940
2018-07-20T13:43:16.207Z,1065
2018-07-20T13:44:17.880Z,1015
2018-07-20T13:45:19.581Z,3505
2018-07-20T13:46:21.326Z,3250
2018-07-20T13:47:23.024Z,1070
2018-07-20T13:48:24.634Z,1040
2018-07-20T13:49:26.403Z,1040
2018-07-20T13:50:28.300Z,2685
2018-07-20T13:51:30.173Z,2000
2018-07-20T13:52:31.990Z,2110
2018-07-20T13:53:33.726Z,1055
2018-07-20T13:54:35.369Z,2775
2018-07-20T13:55:37.108Z,1010
2018-07-20T13:56:38.860Z,2910
2018-07-20T13:57:40.473Z,3005
2018-07-20T13:58:42.158Z,2920
2018-07-20T13:59:43.952Z,1630
2018-07-20T14:00:45.675Z,1830
2018-07-20T14:01:47.425Z,830
2018-07-20T14:02:49.248Z,860
2018-07-20T14:03:50.982Z,800
2018-07-20T14:04:52.894Z,870
2018-07-20T14:05:54.605Z,2490
2018-07-20T14:06:56.295Z,1080
2018-07-20T14:07:58.072Z,3030
2018-07-20T14:08:59.747Z,1780
2018-07-20T14:10:01.436Z,3310
2018-07-20T14:11:03.205Z,3020
2018-07-20T14:12:05.078Z,1300
2018-07-20T14:13:06.813Z,3070
2018-07-20T14:14:08.584Z,1035
2018-07-20T14:15:10.262Z,845
2018-07-20T14:16:11.943Z,800
2018-07-20T14:17:13.632Z,755
2018-07-20T14:18:15.361Z,730
2018-07-20T14:19:16.983Z,760